sensor_id;sensor_type;location;lat;lon;timestamp;P1;durP1;ratioP1;P2;durP2;ratioP2
68921;SDS011;55959;51.244;5.724;2023-09-19T00:00:36;5.28;;;1.35;;
68921;SDS011;55959;51.244;5.724;2023-09-19T00:03:02;4.60;;;1.50;;
68921;SDS011;55959;51.244;5.724;2023-09-19T00:05:29;3.95;;;1.73;;
68921;SDS011;55959;51.244;5.724;2023-09-19T00:08:01;4.70;;;1.88;;
68921;SDS011;55959;51.244;5.724;2023-09-19T00:10:30;3.35;;;1.60;;
68921;SDS011;55959;51.244;5.724;2023-09-19T00:12:59;2.45;;;1.25;;
68921;SDS011;55959;51.244;5.724;2023-09-19T00:15:36;5.07;;;1.80;;
68921;SDS011;55959;51.244;5.724;2023-09-19T00:18:17;4.68;;;1.60;;
68921;SDS011;55959;51.244;5.724;2023-09-19T00:20:46;6.85;;;2.03;;
68921;SDS011;55959;51.244;5.724;2023-09-19T00:23:16;4.18;;;1.50;;
68921;SDS011;55959;51.244;5.724;2023-09-19T00:25:44;3.63;;;1.60;;
68921;SDS011;55959;51.244;5.724;2023-09-19T00:28:10;4.03;;;1.63;;
68921;SDS011;55959;51.244;5.724;2023-09-19T00:30:36;3.75;;;1.55;;
68921;SDS011;55959;51.244;5.724;2023-09-19T00:33:03;4.25;;;1.40;;
68921;SDS011;55959;51.244;5.724;2023-09-19T00:35:31;4.97;;;1.45;;
68921;SDS011;55959;51.244;5.724;2023-09-19T00:37:58;4.47;;;1.52;;
68921;SDS011;55959;51.244;5.724;2023-09-19T00:40:24;4.75;;;1.75;;
68921;SDS011;55959;51.244;5.724;2023-09-19T00:42:51;4.45;;;1.70;;
68921;SDS011;55959;51.244;5.724;2023-09-19T00:45:17;5.25;;;1.67;;
68921;SDS011;55959;51.244;5.724;2023-09-19T00:47:46;3.77;;;1.50;;
68921;SDS011;55959;51.244;5.724;2023-09-19T00:50:14;5.70;;;2.00;;
68921;SDS011;55959;51.244;5.724;2023-09-19T00:52:42;2.57;;;1.20;;
68921;SDS011;55959;51.244;5.724;2023-09-19T00:55:09;4.30;;;1.50;;
68921;SDS011;55959;51.244;5.724;2023-09-19T00:57:37;3.92;;;1.40;;
68921;SDS011;55959;51.244;5.724;2023-09-19T01:00:04;3.58;;;1.40;;
68921;SDS011;55959;51.244;5.724;2023-09-19T01:02:32;3.70;;;1.50;;
68921;SDS011;55959;51.244;5.724;2023-09-19T01:04:59;3.95;;;1.35;;
68921;SDS011;55959;51.244;5.724;2023-09-19T01:07:30;4.82;;;1.63;;
68921;SDS011;55959;51.244;5.724;2023-09-19T01:09:58;4.03;;;1.57;;
68921;SDS011;55959;51.244;5.724;2023-09-19T01:16:01;4.30;;;1.30;;
68921;SDS011;55959;51.244;5.724;2023-09-19T01:22:00;4.63;;;1.50;;
68921;SDS011;55959;51.244;5.724;2023-09-19T01:30:09;3.10;;;1.27;;
68921;SDS011;55959;51.244;5.724;2023-09-19T01:32:36;3.77;;;1.30;;
68921;SDS011;55959;51.244;5.724;2023-09-19T01:35:04;3.97;;;1.73;;
68921;SDS011;55959;51.244;5.724;2023-09-19T01:37:30;3.80;;;1.40;;
68921;SDS011;55959;51.244;5.724;2023-09-19T01:40:01;6.13;;;1.90;;
68921;SDS011;55959;51.244;5.724;2023-09-19T01:45:34;3.40;;;1.73;;
68921;SDS011;55959;51.244;5.724;2023-09-19T01:48:43;3.77;;;1.50;;
68921;SDS011;55959;51.244;5.724;2023-09-19T01:51:30;3.43;;;1.40;;
68921;SDS011;55959;51.244;5.724;2023-09-19T01:54:12;4.00;;;1.50;;
68921;SDS011;55959;51.244;5.724;2023-09-19T01:59:32;7.60;;;1.87;;
68921;SDS011;55959;51.244;5.724;2023-09-19T02:02:05;5.03;;;1.83;;
68921;SDS011;55959;51.244;5.724;2023-09-19T02:04:33;4.77;;;1.30;;
68921;SDS011;55959;51.244;5.724;2023-09-19T02:07:02;4.70;;;1.77;;
68921;SDS011;55959;51.244;5.724;2023-09-19T02:09:30;3.47;;;1.10;;
68921;SDS011;55959;51.244;5.724;2023-09-19T02:11:56;2.97;;;1.30;;
68921;SDS011;55959;51.244;5.724;2023-09-19T02:14:22;3.63;;;1.50;;
68921;SDS011;55959;51.244;5.724;2023-09-19T02:16:48;4.73;;;1.63;;
68921;SDS011;55959;51.244;5.724;2023-09-19T02:19:16;2.57;;;1.00;;
68921;SDS011;55959;51.244;5.724;2023-09-19T02:21:42;3.57;;;1.30;;
68921;SDS011;55959;51.244;5.724;2023-09-19T02:24:08;4.50;;;1.57;;
68921;SDS011;55959;51.244;5.724;2023-09-19T02:26:35;4.07;;;1.30;;
68921;SDS011;55959;51.244;5.724;2023-09-19T02:29:01;4.43;;;1.27;;
68921;SDS011;55959;51.244;5.724;2023-09-19T02:31:30;4.37;;;1.70;;
68921;SDS011;55959;51.244;5.724;2023-09-19T02:33:56;5.00;;;1.13;;
68921;SDS011;55959;51.244;5.724;2023-09-19T02:36:21;4.10;;;1.40;;
68921;SDS011;55959;51.244;5.724;2023-09-19T02:38:48;3.13;;;1.40;;
68921;SDS011;55959;51.244;5.724;2023-09-19T02:41:14;4.67;;;1.70;;
68921;SDS011;55959;51.244;5.724;2023-09-19T02:43:40;4.50;;;1.30;;
68921;SDS011;55959;51.244;5.724;2023-09-19T02:46:08;2.87;;;1.10;;
68921;SDS011;55959;51.244;5.724;2023-09-19T02:48:34;3.20;;;1.03;;
68921;SDS011;55959;51.244;5.724;2023-09-19T02:51:00;3.27;;;1.47;;
68921;SDS011;55959;51.244;5.724;2023-09-19T02:53:29;4.13;;;1.57;;
68921;SDS011;55959;51.244;5.724;2023-09-19T02:55:56;6.70;;;1.50;;
68921;SDS011;55959;51.244;5.724;2023-09-19T02:58:23;6.50;;;1.57;;
68921;SDS011;55959;51.244;5.724;2023-09-19T03:00:50;3.97;;;1.63;;
68921;SDS011;55959;51.244;5.724;2023-09-19T03:03:16;4.13;;;1.40;;
68921;SDS011;55959;51.244;5.724;2023-09-19T03:05:42;4.60;;;1.40;;
68921;SDS011;55959;51.244;5.724;2023-09-19T03:08:12;2.17;;;1.10;;
68921;SDS011;55959;51.244;5.724;2023-09-19T03:10:41;4.90;;;1.77;;
68921;SDS011;55959;51.244;5.724;2023-09-19T03:13:07;3.30;;;1.63;;
68921;SDS011;55959;51.244;5.724;2023-09-19T03:15:35;4.97;;;1.57;;
68921;SDS011;55959;51.244;5.724;2023-09-19T03:18:03;3.80;;;1.50;;
68921;SDS011;55959;51.244;5.724;2023-09-19T03:20:29;5.23;;;1.70;;
68921;SDS011;55959;51.244;5.724;2023-09-19T03:22:55;2.30;;;1.27;;
68921;SDS011;55959;51.244;5.724;2023-09-19T03:25:22;5.30;;;1.43;;
68921;SDS011;55959;51.244;5.724;2023-09-19T03:27:48;4.73;;;1.57;;
68921;SDS011;55959;51.244;5.724;2023-09-19T03:30:14;5.13;;;1.40;;
68921;SDS011;55959;51.244;5.724;2023-09-19T03:32:44;2.90;;;1.20;;
68921;SDS011;55959;51.244;5.724;2023-09-19T03:35:12;3.53;;;1.47;;
68921;SDS011;55959;51.244;5.724;2023-09-19T03:37:40;3.50;;;1.50;;
68921;SDS011;55959;51.244;5.724;2023-09-19T03:40:07;3.63;;;1.53;;
68921;SDS011;55959;51.244;5.724;2023-09-19T03:42:40;3.63;;;1.20;;
68921;SDS011;55959;51.244;5.724;2023-09-19T03:45:08;2.30;;;1.27;;
68921;SDS011;55959;51.244;5.724;2023-09-19T03:47:38;4.03;;;1.40;;
68921;SDS011;55959;51.244;5.724;2023-09-19T03:50:05;4.43;;;1.90;;
68921;SDS011;55959;51.244;5.724;2023-09-19T03:52:33;3.37;;;1.27;;
68921;SDS011;55959;51.244;5.724;2023-09-19T03:55:00;3.40;;;1.43;;
68921;SDS011;55959;51.244;5.724;2023-09-19T03:57:27;4.03;;;1.40;;
68921;SDS011;55959;51.244;5.724;2023-09-19T03:59:53;3.83;;;1.83;;
68921;SDS011;55959;51.244;5.724;2023-09-19T04:02:20;3.43;;;1.20;;
68921;SDS011;55959;51.244;5.724;2023-09-19T04:04:49;4.47;;;1.90;;
68921;SDS011;55959;51.244;5.724;2023-09-19T04:07:18;4.57;;;1.57;;
68921;SDS011;55959;51.244;5.724;2023-09-19T04:09:47;3.20;;;1.40;;
68921;SDS011;55959;51.244;5.724;2023-09-19T04:12:14;4.73;;;1.60;;
68921;SDS011;55959;51.244;5.724;2023-09-19T04:14:42;3.67;;;1.57;;
68921;SDS011;55959;51.244;5.724;2023-09-19T04:17:08;4.20;;;1.30;;
68921;SDS011;55959;51.244;5.724;2023-09-19T04:19:35;4.37;;;1.37;;
68921;SDS011;55959;51.244;5.724;2023-09-19T04:22:00;5.30;;;1.80;;
68921;SDS011;55959;51.244;5.724;2023-09-19T04:24:26;3.67;;;1.60;;
68921;SDS011;55959;51.244;5.724;2023-09-19T04:26:52;5.50;;;1.50;;
68921;SDS011;55959;51.244;5.724;2023-09-19T04:29:18;3.90;;;1.60;;
68921;SDS011;55959;51.244;5.724;2023-09-19T04:31:45;5.70;;;1.70;;
68921;SDS011;55959;51.244;5.724;2023-09-19T04:34:11;3.57;;;1.50;;
68921;SDS011;55959;51.244;5.724;2023-09-19T04:36:40;5.27;;;1.73;;
68921;SDS011;55959;51.244;5.724;2023-09-19T04:39:06;4.30;;;1.30;;
68921;SDS011;55959;51.244;5.724;2023-09-19T04:41:32;4.57;;;1.83;;
68921;SDS011;55959;51.244;5.724;2023-09-19T04:43:59;4.77;;;1.60;;
68921;SDS011;55959;51.244;5.724;2023-09-19T04:46:25;4.80;;;1.80;;
68921;SDS011;55959;51.244;5.724;2023-09-19T04:48:51;4.90;;;1.57;;
68921;SDS011;55959;51.244;5.724;2023-09-19T04:51:16;6.17;;;2.07;;
68921;SDS011;55959;51.244;5.724;2023-09-19T04:53:43;4.33;;;1.47;;
68921;SDS011;55959;51.244;5.724;2023-09-19T04:56:09;3.73;;;1.30;;
68921;SDS011;55959;51.244;5.724;2023-09-19T04:58:35;5.10;;;1.40;;
68921;SDS011;55959;51.244;5.724;2023-09-19T05:01:00;6.00;;;1.77;;
68921;SDS011;55959;51.244;5.724;2023-09-19T05:03:27;5.67;;;1.40;;
68921;SDS011;55959;51.244;5.724;2023-09-19T05:05:53;5.27;;;1.50;;
68921;SDS011;55959;51.244;5.724;2023-09-19T05:08:19;4.97;;;1.23;;
68921;SDS011;55959;51.244;5.724;2023-09-19T05:10:44;5.23;;;1.73;;
68921;SDS011;55959;51.244;5.724;2023-09-19T05:13:10;3.70;;;1.60;;
68921;SDS011;55959;51.244;5.724;2023-09-19T05:15:37;4.53;;;1.43;;
68921;SDS011;55959;51.244;5.724;2023-09-19T05:18:04;2.87;;;1.40;;
68921;SDS011;55959;51.244;5.724;2023-09-19T05:20:31;3.80;;;1.50;;
68921;SDS011;55959;51.244;5.724;2023-09-19T05:23:07;3.07;;;1.40;;
68921;SDS011;55959;51.244;5.724;2023-09-19T05:25:34;3.33;;;1.67;;
68921;SDS011;55959;51.244;5.724;2023-09-19T05:28:08;4.37;;;1.50;;
68921;SDS011;55959;51.244;5.724;2023-09-19T05:30:37;4.03;;;1.30;;
68921;SDS011;55959;51.244;5.724;2023-09-19T05:33:07;3.47;;;1.50;;
68921;SDS011;55959;51.244;5.724;2023-09-19T05:35:33;4.47;;;1.60;;
68921;SDS011;55959;51.244;5.724;2023-09-19T05:38:00;2.80;;;1.50;;
68921;SDS011;55959;51.244;5.724;2023-09-19T05:40:26;3.37;;;1.57;;
68921;SDS011;55959;51.244;5.724;2023-09-19T05:42:52;4.57;;;1.40;;
68921;SDS011;55959;51.244;5.724;2023-09-19T05:45:18;3.27;;;1.20;;
68921;SDS011;55959;51.244;5.724;2023-09-19T05:47:44;3.50;;;1.50;;
68921;SDS011;55959;51.244;5.724;2023-09-19T05:50:10;3.43;;;1.50;;
68921;SDS011;55959;51.244;5.724;2023-09-19T05:52:37;3.70;;;1.30;;
68921;SDS011;55959;51.244;5.724;2023-09-19T05:55:04;4.23;;;1.37;;
68921;SDS011;55959;51.244;5.724;2023-09-19T05:57:32;2.53;;;1.10;;
68921;SDS011;55959;51.244;5.724;2023-09-19T06:00:02;4.33;;;1.90;;
68921;SDS011;55959;51.244;5.724;2023-09-19T06:02:33;1.83;;;1.13;;
68921;SDS011;55959;51.244;5.724;2023-09-19T06:05:01;3.93;;;1.40;;
68921;SDS011;55959;51.244;5.724;2023-09-19T06:07:26;3.67;;;1.50;;
68921;SDS011;55959;51.244;5.724;2023-09-19T06:10:01;6.43;;;1.63;;
68921;SDS011;55959;51.244;5.724;2023-09-19T06:12:31;5.87;;;2.00;;
68921;SDS011;55959;51.244;5.724;2023-09-19T06:14:58;5.80;;;1.50;;
68921;SDS011;55959;51.244;5.724;2023-09-19T06:17:24;5.70;;;1.67;;
68921;SDS011;55959;51.244;5.724;2023-09-19T06:19:52;3.53;;;1.20;;
68921;SDS011;55959;51.244;5.724;2023-09-19T06:22:17;5.50;;;1.60;;
68921;SDS011;55959;51.244;5.724;2023-09-19T06:24:43;2.60;;;1.40;;
68921;SDS011;55959;51.244;5.724;2023-09-19T06:27:10;3.23;;;1.20;;
68921;SDS011;55959;51.244;5.724;2023-09-19T06:29:36;4.73;;;1.20;;
68921;SDS011;55959;51.244;5.724;2023-09-19T06:32:06;2.97;;;1.40;;
68921;SDS011;55959;51.244;5.724;2023-09-19T06:34:34;3.73;;;1.57;;
68921;SDS011;55959;51.244;5.724;2023-09-19T06:36:59;4.30;;;1.53;;
68921;SDS011;55959;51.244;5.724;2023-09-19T06:39:25;3.20;;;1.40;;
68921;SDS011;55959;51.244;5.724;2023-09-19T06:41:51;3.80;;;1.20;;
68921;SDS011;55959;51.244;5.724;2023-09-19T06:44:20;3.23;;;1.17;;
68921;SDS011;55959;51.244;5.724;2023-09-19T06:46:49;2.60;;;1.13;;
68921;SDS011;55959;51.244;5.724;2023-09-19T06:49:16;3.33;;;1.30;;
68921;SDS011;55959;51.244;5.724;2023-09-19T06:51:42;3.53;;;1.60;;
68921;SDS011;55959;51.244;5.724;2023-09-19T06:54:09;3.30;;;1.10;;
68921;SDS011;55959;51.244;5.724;2023-09-19T06:56:35;4.10;;;1.10;;
68921;SDS011;55959;51.244;5.724;2023-09-19T06:59:01;2.80;;;1.23;;
68921;SDS011;55959;51.244;5.724;2023-09-19T07:01:28;4.00;;;1.40;;
68921;SDS011;55959;51.244;5.724;2023-09-19T07:03:54;3.03;;;1.33;;
68921;SDS011;55959;51.244;5.724;2023-09-19T07:06:20;5.60;;;1.57;;
68921;SDS011;55959;51.244;5.724;2023-09-19T07:08:46;3.23;;;1.00;;
68921;SDS011;55959;51.244;5.724;2023-09-19T07:11:12;5.80;;;1.77;;
68921;SDS011;55959;51.244;5.724;2023-09-19T07:13:38;3.13;;;1.57;;
68921;SDS011;55959;51.244;5.724;2023-09-19T07:16:04;1.97;;;1.23;;
68921;SDS011;55959;51.244;5.724;2023-09-19T07:18:30;2.77;;;1.23;;
68921;SDS011;55959;51.244;5.724;2023-09-19T07:20:57;4.13;;;1.40;;
68921;SDS011;55959;51.244;5.724;2023-09-19T07:23:29;4.07;;;1.23;;
68921;SDS011;55959;51.244;5.724;2023-09-19T07:25:59;4.17;;;1.80;;
68921;SDS011;55959;51.244;5.724;2023-09-19T07:28:30;3.97;;;1.60;;
68921;SDS011;55959;51.244;5.724;2023-09-19T07:30:57;3.70;;;1.33;;
68921;SDS011;55959;51.244;5.724;2023-09-19T07:33:28;5.27;;;1.40;;
68921;SDS011;55959;51.244;5.724;2023-09-19T07:35:54;3.97;;;1.23;;
68921;SDS011;55959;51.244;5.724;2023-09-19T07:38:20;2.93;;;1.40;;
68921;SDS011;55959;51.244;5.724;2023-09-19T07:40:46;4.20;;;1.57;;
68921;SDS011;55959;51.244;5.724;2023-09-19T07:43:14;5.80;;;1.70;;
68921;SDS011;55959;51.244;5.724;2023-09-19T07:45:39;2.50;;;1.10;;
68921;SDS011;55959;51.244;5.724;2023-09-19T07:48:05;3.70;;;1.50;;
68921;SDS011;55959;51.244;5.724;2023-09-19T07:50:39;4.53;;;1.60;;
68921;SDS011;55959;51.244;5.724;2023-09-19T07:53:05;3.90;;;1.40;;
68921;SDS011;55959;51.244;5.724;2023-09-19T07:55:31;4.03;;;1.67;;
68921;SDS011;55959;51.244;5.724;2023-09-19T07:57:59;3.33;;;1.30;;
68921;SDS011;55959;51.244;5.724;2023-09-19T08:00:25;4.65;;;1.42;;
68921;SDS011;55959;51.244;5.724;2023-09-19T08:02:51;3.30;;;1.47;;
68921;SDS011;55959;51.244;5.724;2023-09-19T08:05:17;3.50;;;1.17;;
68921;SDS011;55959;51.244;5.724;2023-09-19T08:07:44;4.77;;;1.40;;
68921;SDS011;55959;51.244;5.724;2023-09-19T08:10:15;4.03;;;1.83;;
68921;SDS011;55959;51.244;5.724;2023-09-19T08:12:44;4.10;;;1.40;;
68921;SDS011;55959;51.244;5.724;2023-09-19T08:15:20;3.70;;;1.50;;
68921;SDS011;55959;51.244;5.724;2023-09-19T08:17:46;4.97;;;1.57;;
68921;SDS011;55959;51.244;5.724;2023-09-19T08:20:13;3.72;;;1.20;;
68921;SDS011;55959;51.244;5.724;2023-09-19T08:22:46;3.08;;;1.50;;
68921;SDS011;55959;51.244;5.724;2023-09-19T08:25:15;2.57;;;1.40;;
68921;SDS011;55959;51.244;5.724;2023-09-19T08:27:44;3.72;;;1.52;;
68921;SDS011;55959;51.244;5.724;2023-09-19T08:30:22;3.15;;;1.10;;
68921;SDS011;55959;51.244;5.724;2023-09-19T08:32:49;5.88;;;1.48;;
68921;SDS011;55959;51.244;5.724;2023-09-19T08:35:23;3.08;;;1.38;;
68921;SDS011;55959;51.244;5.724;2023-09-19T08:37:49;3.33;;;1.00;;
68921;SDS011;55959;51.244;5.724;2023-09-19T08:40:15;3.33;;;1.42;;
68921;SDS011;55959;51.244;5.724;2023-09-19T08:42:51;2.90;;;1.50;;
68921;SDS011;55959;51.244;5.724;2023-09-19T08:45:19;4.32;;;1.45;;
68921;SDS011;55959;51.244;5.724;2023-09-19T08:50:43;2.58;;;1.27;;
68921;SDS011;55959;51.244;5.724;2023-09-19T08:53:15;4.30;;;1.42;;
68921;SDS011;55959;51.244;5.724;2023-09-19T08:55:56;4.05;;;1.20;;
68921;SDS011;55959;51.244;5.724;2023-09-19T08:58:27;2.97;;;1.20;;
68921;SDS011;55959;51.244;5.724;2023-09-19T09:01:01;5.45;;;1.58;;
68921;SDS011;55959;51.244;5.724;2023-09-19T09:03:32;2.92;;;1.40;;
68921;SDS011;55959;51.244;5.724;2023-09-19T09:05:59;2.42;;;1.00;;
68921;SDS011;55959;51.244;5.724;2023-09-19T09:08:26;3.75;;;1.40;;
68921;SDS011;55959;51.244;5.724;2023-09-19T09:10:56;3.38;;;1.25;;
68921;SDS011;55959;51.244;5.724;2023-09-19T09:13:22;4.28;;;1.30;;
68921;SDS011;55959;51.244;5.724;2023-09-19T09:15:51;3.97;;;1.35;;
68921;SDS011;55959;51.244;5.724;2023-09-19T09:18:19;3.08;;;1.30;;
68921;SDS011;55959;51.244;5.724;2023-09-19T09:20:45;3.22;;;1.15;;
68921;SDS011;55959;51.244;5.724;2023-09-19T09:23:12;3.08;;;1.25;;
68921;SDS011;55959;51.244;5.724;2023-09-19T09:28:26;2.63;;;1.42;;
68921;SDS011;55959;51.244;5.724;2023-09-19T09:30:54;4.50;;;1.50;;
68921;SDS011;55959;51.244;5.724;2023-09-19T09:33:20;2.50;;;0.93;;
68921;SDS011;55959;51.244;5.724;2023-09-19T09:35:48;3.45;;;1.63;;
68921;SDS011;55959;51.244;5.724;2023-09-19T09:38:25;3.13;;;1.70;;
68921;SDS011;55959;51.244;5.724;2023-09-19T09:41:08;4.30;;;1.58;;
68921;SDS011;55959;51.244;5.724;2023-09-19T09:43:41;2.97;;;1.40;;
68921;SDS011;55959;51.244;5.724;2023-09-19T09:46:11;2.50;;;1.30;;
68921;SDS011;55959;51.244;5.724;2023-09-19T09:48:47;5.25;;;1.55;;
68921;SDS011;55959;51.244;5.724;2023-09-19T09:51:43;4.32;;;1.25;;
68921;SDS011;55959;51.244;5.724;2023-09-19T09:54:25;4.53;;;1.88;;
68921;SDS011;55959;51.244;5.724;2023-09-19T09:57:00;3.42;;;1.33;;
68921;SDS011;55959;51.244;5.724;2023-09-19T09:59:52;4.13;;;1.30;;
68921;SDS011;55959;51.244;5.724;2023-09-19T10:02:21;2.83;;;1.10;;
68921;SDS011;55959;51.244;5.724;2023-09-19T10:08:11;2.97;;;1.45;;
68921;SDS011;55959;51.244;5.724;2023-09-19T10:10:39;2.65;;;1.13;;
68921;SDS011;55959;51.244;5.724;2023-09-19T10:13:11;2.50;;;1.10;;
68921;SDS011;55959;51.244;5.724;2023-09-19T10:15:40;2.83;;;1.20;;
68921;SDS011;55959;51.244;5.724;2023-09-19T10:18:15;3.03;;;0.88;;
68921;SDS011;55959;51.244;5.724;2023-09-19T10:20:47;3.17;;;1.13;;
68921;SDS011;55959;51.244;5.724;2023-09-19T10:23:20;3.58;;;1.20;;
68921;SDS011;55959;51.244;5.724;2023-09-19T10:25:52;4.10;;;1.35;;
68921;SDS011;55959;51.244;5.724;2023-09-19T10:28:19;4.65;;;1.67;;
68921;SDS011;55959;51.244;5.724;2023-09-19T10:30:52;3.80;;;1.23;;
68921;SDS011;55959;51.244;5.724;2023-09-19T10:33:20;4.22;;;1.45;;
68921;SDS011;55959;51.244;5.724;2023-09-19T10:35:51;3.28;;;1.10;;
68921;SDS011;55959;51.244;5.724;2023-09-19T10:38:25;3.80;;;1.52;;
68921;SDS011;55959;51.244;5.724;2023-09-19T10:40:54;2.88;;;1.35;;
68921;SDS011;55959;51.244;5.724;2023-09-19T10:43:31;3.42;;;1.63;;
68921;SDS011;55959;51.244;5.724;2023-09-19T10:46:02;3.60;;;1.13;;
68921;SDS011;55959;51.244;5.724;2023-09-19T10:48:32;5.82;;;1.92;;
68921;SDS011;55959;51.244;5.724;2023-09-19T10:51:12;4.75;;;1.30;;
68921;SDS011;55959;51.244;5.724;2023-09-19T10:53:49;4.72;;;1.40;;
68921;SDS011;55959;51.244;5.724;2023-09-19T10:56:19;4.38;;;1.73;;
68921;SDS011;55959;51.244;5.724;2023-09-19T10:59:10;5.03;;;1.42;;
68921;SDS011;55959;51.244;5.724;2023-09-19T11:01:42;2.75;;;1.23;;
68921;SDS011;55959;51.244;5.724;2023-09-19T11:07:01;2.30;;;1.10;;
68921;SDS011;55959;51.244;5.724;2023-09-19T11:14:54;3.00;;;1.55;;
68921;SDS011;55959;51.244;5.724;2023-09-19T11:30:30;3.92;;;1.17;;
68921;SDS011;55959;51.244;5.724;2023-09-19T11:44:38;2.80;;;1.10;;
68921;SDS011;55959;51.244;5.724;2023-09-19T11:49:18;2.28;;;1.00;;
68921;SDS011;55959;51.244;5.724;2023-09-19T11:51:54;2.60;;;1.10;;
68921;SDS011;55959;51.244;5.724;2023-09-19T11:54:21;2.55;;;1.10;;
68921;SDS011;55959;51.244;5.724;2023-09-19T11:56:53;3.05;;;0.93;;
68921;SDS011;55959;51.244;5.724;2023-09-19T11:59:22;1.60;;;0.90;;
68921;SDS011;55959;51.244;5.724;2023-09-19T12:01:53;3.28;;;0.90;;
68921;SDS011;55959;51.244;5.724;2023-09-19T12:07:14;1.58;;;0.60;;
68921;SDS011;55959;51.244;5.724;2023-09-19T12:09:41;1.60;;;0.73;;
68921;SDS011;55959;51.244;5.724;2023-09-19T12:12:13;2.15;;;0.60;;
68921;SDS011;55959;51.244;5.724;2023-09-19T12:14:48;0.98;;;0.75;;
68921;SDS011;55959;51.244;5.724;2023-09-19T12:17:15;1.73;;;0.90;;
68921;SDS011;55959;51.244;5.724;2023-09-19T12:19:53;2.20;;;0.60;;
68921;SDS011;55959;51.244;5.724;2023-09-19T12:22:21;1.17;;;0.68;;
68921;SDS011;55959;51.244;5.724;2023-09-19T12:24:46;3.15;;;0.90;;
68921;SDS011;55959;51.244;5.724;2023-09-19T12:27:13;1.42;;;0.70;;
68921;SDS011;55959;51.244;5.724;2023-09-19T12:29:44;3.60;;;0.90;;
68921;SDS011;55959;51.244;5.724;2023-09-19T12:32:14;1.52;;;0.90;;
68921;SDS011;55959;51.244;5.724;2023-09-19T12:34:42;3.10;;;0.80;;
68921;SDS011;55959;51.244;5.724;2023-09-19T12:37:16;2.00;;;0.88;;
68921;SDS011;55959;51.244;5.724;2023-09-19T12:39:52;2.28;;;0.80;;
68921;SDS011;55959;51.244;5.724;2023-09-19T12:42:23;2.63;;;0.88;;
68921;SDS011;55959;51.244;5.724;2023-09-19T12:45:00;2.15;;;0.65;;
68921;SDS011;55959;51.244;5.724;2023-09-19T12:47:27;1.17;;;0.80;;
68921;SDS011;55959;51.244;5.724;2023-09-19T12:50:13;1.70;;;0.60;;
68921;SDS011;55959;51.244;5.724;2023-09-19T12:52:44;1.55;;;0.60;;
68921;SDS011;55959;51.244;5.724;2023-09-19T12:55:20;1.17;;;0.60;;
68921;SDS011;55959;51.244;5.724;2023-09-19T12:58:08;2.10;;;0.73;;
68921;SDS011;55959;51.244;5.724;2023-09-19T13:06:02;3.50;;;0.90;;
68921;SDS011;55959;51.244;5.724;2023-09-19T13:11:11;1.63;;;0.60;;
68921;SDS011;55959;51.244;5.724;2023-09-19T13:16:13;1.55;;;0.50;;
68921;SDS011;55959;51.244;5.724;2023-09-19T13:18:45;2.08;;;0.75;;
68921;SDS011;55959;51.244;5.724;2023-09-19T13:21:15;1.05;;;0.52;;
68921;SDS011;55959;51.244;5.724;2023-09-19T13:23:52;1.42;;;0.68;;
68921;SDS011;55959;51.244;5.724;2023-09-19T13:26:41;1.38;;;0.50;;
68921;SDS011;55959;51.244;5.724;2023-09-19T13:29:07;2.50;;;0.45;;
68921;SDS011;55959;51.244;5.724;2023-09-19T13:31:34;0.95;;;0.40;;
68921;SDS011;55959;51.244;5.724;2023-09-19T13:34:00;0.95;;;0.40;;
68921;SDS011;55959;51.244;5.724;2023-09-19T13:36:26;1.77;;;0.60;;
68921;SDS011;55959;51.244;5.724;2023-09-19T13:38:52;0.50;;;0.30;;
68921;SDS011;55959;51.244;5.724;2023-09-19T13:41:18;0.70;;;0.32;;
68921;SDS011;55959;51.244;5.724;2023-09-19T13:43:44;2.17;;;0.50;;
68921;SDS011;55959;51.244;5.724;2023-09-19T13:46:13;1.02;;;0.55;;
68921;SDS011;55959;51.244;5.724;2023-09-19T13:48:40;0.40;;;0.30;;
68921;SDS011;55959;51.244;5.724;2023-09-19T13:51:06;2.35;;;0.80;;
68921;SDS011;55959;51.244;5.724;2023-09-19T13:53:32;1.38;;;0.38;;
68921;SDS011;55959;51.244;5.724;2023-09-19T13:55:58;1.83;;;0.70;;
68921;SDS011;55959;51.244;5.724;2023-09-19T13:58:23;1.95;;;0.50;;
68921;SDS011;55959;51.244;5.724;2023-09-19T14:00:50;1.35;;;0.43;;
68921;SDS011;55959;51.244;5.724;2023-09-19T14:03:15;0.50;;;0.30;;
68921;SDS011;55959;51.244;5.724;2023-09-19T14:05:41;0.98;;;0.45;;
68921;SDS011;55959;51.244;5.724;2023-09-19T14:08:07;1.65;;;0.68;;
68921;SDS011;55959;51.244;5.724;2023-09-19T14:10:33;1.02;;;0.60;;
68921;SDS011;55959;51.244;5.724;2023-09-19T14:13:00;1.05;;;0.43;;
68921;SDS011;55959;51.244;5.724;2023-09-19T14:15:30;1.83;;;0.50;;
68921;SDS011;55959;51.244;5.724;2023-09-19T14:17:56;3.17;;;0.73;;
68921;SDS011;55959;51.244;5.724;2023-09-19T14:20:25;1.20;;;0.60;;
68921;SDS011;55959;51.244;5.724;2023-09-19T14:22:55;1.75;;;0.38;;
68921;SDS011;55959;51.244;5.724;2023-09-19T14:25:24;1.42;;;0.57;;
68921;SDS011;55959;51.244;5.724;2023-09-19T14:27:50;2.10;;;0.52;;
68921;SDS011;55959;51.244;5.724;2023-09-19T14:30:18;1.63;;;0.50;;
68921;SDS011;55959;51.244;5.724;2023-09-19T14:32:46;2.10;;;0.60;;
68921;SDS011;55959;51.244;5.724;2023-09-19T14:35:12;1.02;;;0.40;;
68921;SDS011;55959;51.244;5.724;2023-09-19T14:41:06;2.03;;;0.60;;
68921;SDS011;55959;51.244;5.724;2023-09-19T14:43:33;1.67;;;0.60;;
68921;SDS011;55959;51.244;5.724;2023-09-19T14:46:05;2.22;;;0.65;;
68921;SDS011;55959;51.244;5.724;2023-09-19T14:48:48;1.45;;;0.40;;
68921;SDS011;55959;51.244;5.724;2023-09-19T14:51:24;2.38;;;0.90;;
68921;SDS011;55959;51.244;5.724;2023-09-19T14:53:50;0.93;;;0.50;;
68921;SDS011;55959;51.244;5.724;2023-09-19T14:56:16;1.33;;;0.50;;
68921;SDS011;55959;51.244;5.724;2023-09-19T14:58:48;2.15;;;0.68;;
68921;SDS011;55959;51.244;5.724;2023-09-19T15:01:23;2.80;;;0.80;;
68921;SDS011;55959;51.244;5.724;2023-09-19T15:03:55;1.40;;;0.70;;
68921;SDS011;55959;51.244;5.724;2023-09-19T15:06:22;0.88;;;0.60;;
68921;SDS011;55959;51.244;5.724;2023-09-19T15:08:47;2.10;;;0.60;;
68921;SDS011;55959;51.244;5.724;2023-09-19T15:16:24;1.08;;;0.52;;
68921;SDS011;55959;51.244;5.724;2023-09-19T15:18:51;1.23;;;0.55;;
68921;SDS011;55959;51.244;5.724;2023-09-19T15:21:17;2.22;;;0.60;;
68921;SDS011;55959;51.244;5.724;2023-09-19T15:23:43;1.48;;;0.68;;
68921;SDS011;55959;51.244;5.724;2023-09-19T15:26:11;0.77;;;0.47;;
68921;SDS011;55959;51.244;5.724;2023-09-19T15:28:39;2.03;;;0.90;;
68921;SDS011;55959;51.244;5.724;2023-09-19T15:31:09;1.10;;;0.57;;
68921;SDS011;55959;51.244;5.724;2023-09-19T15:33:37;1.20;;;0.50;;
68921;SDS011;55959;51.244;5.724;2023-09-19T15:36:03;1.35;;;0.70;;
68921;SDS011;55959;51.244;5.724;2023-09-19T15:38:31;1.15;;;0.60;;
68921;SDS011;55959;51.244;5.724;2023-09-19T15:41:32;2.78;;;0.60;;
68921;SDS011;55959;51.244;5.724;2023-09-19T15:44:02;2.47;;;0.70;;
68921;SDS011;55959;51.244;5.724;2023-09-19T15:46:29;2.30;;;0.75;;
68921;SDS011;55959;51.244;5.724;2023-09-19T15:48:56;1.23;;;0.75;;
68921;SDS011;55959;51.244;5.724;2023-09-19T15:51:23;2.15;;;0.82;;
68921;SDS011;55959;51.244;5.724;2023-09-19T15:53:50;1.17;;;0.63;;
68921;SDS011;55959;51.244;5.724;2023-09-19T15:56:18;1.92;;;0.93;;
68921;SDS011;55959;51.244;5.724;2023-09-19T15:58:49;1.58;;;0.80;;
68921;SDS011;55959;51.244;5.724;2023-09-19T16:01:16;1.95;;;0.80;;
68921;SDS011;55959;51.244;5.724;2023-09-19T16:03:46;2.00;;;0.60;;
68921;SDS011;55959;51.244;5.724;2023-09-19T16:06:26;2.42;;;1.08;;
68921;SDS011;55959;51.244;5.724;2023-09-19T16:08:57;1.75;;;0.93;;
68921;SDS011;55959;51.244;5.724;2023-09-19T16:11:24;0.90;;;0.60;;
68921;SDS011;55959;51.244;5.724;2023-09-19T16:13:53;1.38;;;0.70;;
68921;SDS011;55959;51.244;5.724;2023-09-19T16:16:20;1.80;;;0.90;;
68921;SDS011;55959;51.244;5.724;2023-09-19T16:18:50;1.27;;;0.60;;
68921;SDS011;55959;51.244;5.724;2023-09-19T16:21:20;1.73;;;0.70;;
68921;SDS011;55959;51.244;5.724;2023-09-19T16:23:47;1.80;;;0.80;;